Time;durP1;ratioP1;P1;durP2;ratioP2;P2;SDS_P1;SDS_P2;PMS_P1;PMS_P2;Temp;Humidity;BMP_temperature;BMP_pressure;BME280_temperature;BME280_humidity;BME280_pressure;Samples;Min_cycle;Max_cycle;Signal;HPM_P1;HPM_P2
2022/04/28 00:00:49;;;;;;;2.17;0.90;;;;;;;;;;5031191;28;20441;-68
2022/04/28 00:03:16;;;;;;;2.30;0.97;;;;;;;;;;5030910;28;20495;-68
2022/04/28 00:05:43;;;;;;;2.03;1.10;;;;;;;;;;5038875;28;20542;-68
2022/04/28 00:08:10;;;;;;;2.50;0.90;;;;;;;;;;5049994;28;20432;-68
2022/04/28 00:10:37;;;;;;;3.20;1.30;;;;;;;;;;5051055;28;20446;-68
2022/04/28 00:13:04;;;;;;;1.77;0.80;;;;;;;;;;5050947;28;20526;-68
2022/04/28 00:15:31;;;;;;;2.47;0.90;;;;;;;;;;5050990;28;20461;-68
2022/04/28 00:17:58;;;;;;;2.00;1.00;;;;;;;;;;5050818;28;20475;-68
2022/04/28 00:20:24;;;;;;;1.77;0.90;;;;;;;;;;5053635;28;21047;-68
2022/04/28 00:22:51;;;;;;;4.10;1.43;;;;;;;;;;5053564;28;20787;-68
2022/04/28 00:25:18;;;;;;;2.43;1.20;;;;;;;;;;5054557;28;20432;-68
2022/04/28 00:27:44;;;;;;;3.53;1.53;;;;;;;;;;5054489;28;20471;-68
2022/04/28 00:30:11;;;;;;;2.87;1.03;;;;;;;;;;5037201;28;20522;-68
2022/04/28 00:32:38;;;;;;;4.07;1.00;;;;;;;;;;5037030;28;20523;-68
2022/04/28 00:35:05;;;;;;;2.80;1.40;;;;;;;;;;5053133;28;20437;-68
2022/04/28 00:37:32;;;;;;;3.80;1.20;;;;;;;;;;5054452;28;20548;-68
2022/04/28 00:39:59;;;;;;;3.20;1.20;;;;;;;;;;5016472;28;20460;-68
2022/04/28 00:42:25;;;;;;;2.30;1.30;;;;;;;;;;5034498;28;20462;-68
2022/04/28 00:44:52;;;;;;;4.03;1.60;;;;;;;;;;5025063;28;20447;-68
2022/04/28 00:47:19;;;;;;;3.07;1.50;;;;;;;;;;5053232;28;20496;-68
2022/04/28 00:52:32;;;;;;;3.63;1.40;;;;;;;;;;5046219;28;20446;-68
2022/04/28 00:54:59;;;;;;;4.67;1.43;;;;;;;;;;5000177;28;20505;-68
2022/04/28 00:57:26;;;;;;;2.67;1.50;;;;;;;;;;5032958;28;20501;-68
2022/04/28 00:59:53;;;;;;;3.00;1.80;;;;;;;;;;5018754;28;20448;-68
2022/04/28 01:02:20;;;;;;;3.00;1.50;;;;;;;;;;5054179;28;20485;-67
2022/04/28 01:04:47;;;;;;;2.93;1.40;;;;;;;;;;5036235;28;20503;-68
2022/04/28 01:07:17;;;;;;;2.63;1.33;;;;;;;;;;5053971;28;20774;-68
2022/04/28 01:09:45;;;;;;;3.40;1.77;;;;;;;;;;5035921;28;20828;-68
2022/04/28 01:12:15;;;;;;;2.57;1.53;;;;;;;;;;5036175;28;20553;-68
2022/04/28 01:14:46;;;;;;;2.77;1.40;;;;;;;;;;5053659;28;21016;-68
2022/04/28 01:17:13;;;;;;;3.73;1.63;;;;;;;;;;5031592;28;20484;-68
2022/04/28 01:19:46;;;;;;;3.30;1.50;;;;;;;;;;5032310;28;20453;-68
2022/04/28 01:22:13;;;;;;;2.07;1.40;;;;;;;;;;5033850;28;20438;-68
2022/04/28 01:24:40;;;;;;;2.90;1.80;;;;;;;;;;5033577;28;20805;-68
2022/04/28 01:27:09;;;;;;;4.17;1.77;;;;;;;;;;5032394;28;20447;-68
2022/04/28 01:29:35;;;;;;;3.90;1.50;;;;;;;;;;5033612;28;20429;-68
2022/04/28 01:32:02;;;;;;;3.53;1.83;;;;;;;;;;5032834;28;20486;-68
2022/04/28 01:34:36;;;;;;;4.17;1.80;;;;;;;;;;5026396;28;20918;-68
2022/04/28 01:37:04;;;;;;;3.23;1.60;;;;;;;;;;5053263;28;20475;-68
2022/04/28 01:39:50;;;;;;;4.03;1.63;;;;;;;;;;5035446;28;20440;-68
2022/04/28 01:42:17;;;;;;;4.37;1.53;;;;;;;;;;5035349;28;20440;-68
2022/04/28 01:44:44;;;;;;;3.30;1.87;;;;;;;;;;5035225;28;20436;-68
2022/04/28 01:47:11;;;;;;;4.27;1.80;;;;;;;;;;5035297;28;20446;-68
2022/04/28 01:50:12;;;;;;;2.97;1.63;;;;;;;;;;5053141;28;20429;-68
2022/04/28 01:56:00;;;;;;;2.63;1.53;;;;;;;;;;5035047;28;20451;-68
2022/04/28 01:58:59;;;;;;;4.53;1.70;;;;;;;;;;4998004;28;20487;-68
2022/04/28 02:02:02;;;;;;;3.53;1.73;;;;;;;;;;4971886;28;20612;-68
2022/04/28 02:04:29;;;;;;;4.67;1.80;;;;;;;;;;5018765;28;21031;-68
2022/04/28 02:06:56;;;;;;;2.80;1.70;;;;;;;;;;5034816;28;20548;-68
2022/04/28 02:09:23;;;;;;;4.30;1.90;;;;;;;;;;5051498;28;20451;-68
2022/04/28 02:11:51;;;;;;;4.17;1.90;;;;;;;;;;5034998;28;20454;-68
2022/04/28 02:14:56;;;;;;;3.60;1.30;;;;;;;;;;4990501;28;20457;-68
2022/04/28 02:17:46;;;;;;;4.93;1.83;;;;;;;;;;4972785;28;20476;-68
2022/04/28 02:20:13;;;;;;;3.03;1.67;;;;;;;;;;5012598;28;20445;-68
2022/04/28 02:22:43;;;;;;;2.37;1.60;;;;;;;;;;5052518;28;20482;-68
2022/04/28 02:25:10;;;;;;;4.33;1.60;;;;;;;;;;5052621;28;20765;-68
2022/04/28 02:27:37;;;;;;;3.10;1.60;;;;;;;;;;5052188;28;20467;-68
2022/04/28 02:30:04;;;;;;;2.90;1.73;;;;;;;;;;5051208;28;20460;-67
2022/04/28 02:33:08;;;;;;;3.78;1.70;;;;;;;;;;5033746;28;20930;-69
2022/04/28 02:35:20;;;;;;;4.47;1.83;;;;;;;;;;5033810;28;20664;-68
2022/04/28 02:37:48;;;;;;;3.00;1.47;;;;;;;;;;5029406;28;20473;-68
2022/04/28 02:40:16;;;;;;;2.60;1.63;;;;;;;;;;5046487;28;20530;-68
2022/04/28 02:42:44;;;;;;;3.60;1.40;;;;;;;;;;5066347;28;20456;-68
2022/04/28 02:45:10;;;;;;;3.73;2.07;;;;;;;;;;5034040;28;20959;-68
2022/04/28 02:47:42;;;;;;;4.60;1.97;;;;;;;;;;5067212;28;20447;-68
2022/04/28 02:50:12;;;;;;;3.23;2.10;;;;;;;;;;5052023;28;20444;-69
2022/04/28 02:52:41;;;;;;;4.40;1.80;;;;;;;;;;5033851;28;20475;-70
2022/04/28 02:55:08;;;;;;;2.23;1.43;;;;;;;;;;5034977;28;20446;-69
2022/04/28 02:57:37;;;;;;;2.00;1.30;;;;;;;;;;5030554;28;20466;-68
2022/04/28 03:00:04;;;;;;;2.67;1.30;;;;;;;;;;5030135;28;20452;-68
2022/04/28 03:02:39;;;;;;;1.40;1.07;;;;;;;;;;5002974;28;20464;-69
2022/04/28 03:05:07;;;;;;;3.00;1.10;;;;;;;;;;5026168;28;20487;-69
2022/04/28 03:10:46;;;;;;;1.97;1.10;;;;;;;;;;5010821;28;20540;-68
2022/04/28 03:13:13;;;;;;;2.37;1.27;;;;;;;;;;5044705;28;20525;-68
2022/04/28 03:15:41;;;;;;;2.20;1.47;;;;;;;;;;5026652;28;20497;-69
2022/04/28 03:18:08;;;;;;;3.20;1.23;;;;;;;;;;5027165;28;20594;-68
2022/04/28 03:20:36;;;;;;;2.53;1.20;;;;;;;;;;5026486;28;21023;-68
2022/04/28 03:23:08;;;;;;;1.90;1.10;;;;;;;;;;5013732;28;20445;-68
2022/04/28 03:25:36;;;;;;;1.97;1.20;;;;;;;;;;5009920;28;20435;-70
2022/04/28 03:28:03;;;;;;;2.80;1.20;;;;;;;;;;5026376;28;20546;-68
2022/04/28 03:30:50;;;;;;;2.60;1.27;;;;;;;;;;5043617;28;20512;-68
2022/04/28 03:33:22;;;;;;;3.50;1.60;;;;;;;;;;5026406;28;20462;-68
2022/04/28 03:35:49;;;;;;;5.83;1.43;;;;;;;;;;5026217;28;21014;-68
2022/04/28 03:38:16;;;;;;;3.37;1.53;;;;;;;;;;5025405;28;20476;-67
2022/04/28 03:40:44;;;;;;;3.30;1.50;;;;;;;;;;5032804;28;20502;-67
2022/04/28 03:43:12;;;;;;;4.03;2.10;;;;;;;;;;5057791;28;20431;-69
2022/04/28 03:45:38;;;;;;;3.57;1.70;;;;;;;;;;5026295;28;20472;-67
2022/04/28 03:48:14;;;;;;;1.90;1.33;;;;;;;;;;5051951;28;20446;-66
2022/04/28 03:50:40;;;;;;;2.97;1.60;;;;;;;;;;5019651;28;20456;-68
2022/04/28 03:53:07;;;;;;;5.63;3.10;;;;;;;;;;5026397;28;20551;-68
2022/04/28 03:55:35;;;;;;;3.37;1.77;;;;;;;;;;5051168;28;20481;-68
2022/04/28 03:58:02;;;;;;;3.77;1.70;;;;;;;;;;5030871;28;20493;-69
2022/04/28 04:00:30;;;;;;;2.53;1.73;;;;;;;;;;5030644;28;20445;-68
2022/04/28 04:03:03;;;;;;;2.83;1.80;;;;;;;;;;5046047;28;20468;-68
2022/04/28 04:05:32;;;;;;;2.30;1.47;;;;;;;;;;5048531;28;20952;-68
2022/04/28 04:07:59;;;;;;;4.93;2.03;;;;;;;;;;5023386;28;20451;-69
2022/04/28 04:10:45;;;;;;;2.70;1.37;;;;;;;;;;5047023;28;20439;-69
2022/04/28 04:13:12;;;;;;;4.97;2.03;;;;;;;;;;5060505;28;20812;-69
2022/04/28 04:15:46;;;;;;;4.90;1.77;;;;;;;;;;5028034;28;20514;-69
2022/04/28 04:18:46;;;;;;;2.37;1.47;;;;;;;;;;5003401;28;21164;-69
2022/04/28 04:21:22;;;;;;;5.53;1.53;;;;;;;;;;5044139;28;20444;-70
2022/04/28 04:23:49;;;;;;;3.23;1.77;;;;;;;;;;5047007;28;20463;-70
2022/04/28 04:26:16;;;;;;;3.17;1.97;;;;;;;;;;5046597;28;20467;-69
2022/04/28 04:28:43;;;;;;;3.47;2.10;;;;;;;;;;5028764;28;20478;-69
2022/04/28 04:34:34;;;;;;;3.23;1.97;;;;;;;;;;5045646;28;21003;-68
2022/04/28 04:37:01;;;;;;;2.63;1.60;;;;;;;;;;5047260;28;20435;-69
2022/04/28 04:39:28;;;;;;;4.20;2.50;;;;;;;;;;5029413;28;20483;-68
2022/04/28 04:41:57;;;;;;;5.77;3.00;;;;;;;;;;5033319;28;20508;-68
2022/04/28 04:44:25;;;;;;;5.93;3.73;;;;;;;;;;5021049;28;20499;-68
2022/04/28 04:46:52;;;;;;;6.67;3.43;;;;;;;;;;5028420;28;20242;-68
2022/04/28 04:49:35;;;;;;;5.70;2.57;;;;;;;;;;5028709;28;20202;-68
2022/04/28 04:52:12;;;;;;;5.60;2.60;;;;;;;;;;5029704;28;20198;-68
2022/04/28 04:55:05;;;;;;;5.20;2.23;;;;;;;;;;5045107;28;20214;-68
2022/04/28 04:57:54;;;;;;;7.53;2.90;;;;;;;;;;5029781;28;20265;-68
2022/04/28 05:00:21;;;;;;;4.93;2.70;;;;;;;;;;5028801;28;20725;-68
2022/04/28 05:03:11;;;;;;;7.80;3.37;;;;;;;;;;5033375;28;20206;-68
2022/04/28 05:06:08;;;;;;;5.13;2.67;;;;;;;;;;5005832;28;20205;-68
2022/04/28 05:08:47;;;;;;;5.23;2.67;;;;;;;;;;5045323;28;20286;-68
2022/04/28 05:11:14;;;;;;;5.23;2.23;;;;;;;;;;5028114;28;20206;-68
2022/04/28 05:13:56;;;;;;;6.13;2.87;;;;;;;;;;5027208;28;20210;-67
2022/04/28 05:16:23;;;;;;;5.70;2.80;;;;;;;;;;5027937;28;20847;-68
2022/04/28 05:19:00;;;;;;;13.00;9.97;;;;;;;;;;5026344;28;20790;-68
2022/04/28 05:21:29;;;;;;;23.60;14.50;;;;;;;;;;5046431;28;20240;-68
2022/04/28 05:23:59;;;;;;;4.97;1.50;;;;;;;;;;5043037;28;20277;-68
2022/04/28 05:26:52;;;;;;;4.47;1.40;;;;;;;;;;5048212;28;20265;-68
2022/04/28 05:29:41;;;;;;;4.00;1.20;;;;;;;;;;5030647;28;20213;-69
2022/04/28 05:32:26;;;;;;;4.60;1.40;;;;;;;;;;5026995;28;20211;-68
2022/04/28 05:35:03;;;;;;;2.80;1.17;;;;;;;;;;5027880;28;20851;-69
2022/04/28 05:37:30;;;;;;;2.80;1.20;;;;;;;;;;5028220;28;20214;-69
2022/04/28 05:40:15;;;;;;;3.13;1.40;;;;;;;;;;5027875;28;20181;-69
2022/04/28 05:45:46;;;;;;;2.07;1.20;;;;;;;;;;5051003;28;20226;-69
2022/04/28 05:48:15;;;;;;;4.60;1.30;;;;;;;;;;5044251;28;20234;-68
2022/04/28 05:50:44;;;;;;;3.93;1.20;;;;;;;;;;5026830;28;20198;-69
2022/04/28 05:53:14;;;;;;;4.57;1.17;;;;;;;;;;5027286;28;20214;-68
2022/04/28 05:55:43;;;;;;;3.13;1.10;;;;;;;;;;5007502;28;20206;-68
2022/04/28 05:58:11;;;;;;;4.80;1.10;;;;;;;;;;5018705;28;20215;-68
2022/04/28 06:00:44;;;;;;;2.30;1.10;;;;;;;;;;5034094;28;20194;-67
2022/04/28 06:03:11;;;;;;;4.00;1.27;;;;;;;;;;5026737;28;20605;-67
2022/04/28 06:05:48;;;;;;;4.43;1.10;;;;;;;;;;5025834;28;20199;-67
2022/04/28 06:08:16;;;;;;;4.17;1.00;;;;;;;;;;5026013;28;20242;-68
2022/04/28 06:10:42;;;;;;;2.23;1.00;;;;;;;;;;5028880;28;20182;-66
2022/04/28 06:13:27;;;;;;;1.90;0.90;;;;;;;;;;5033656;28;20182;-67
2022/04/28 06:16:13;;;;;;;1.97;0.90;;;;;;;;;;5037826;28;20193;-67
2022/04/28 06:19:05;;;;;;;4.50;1.10;;;;;;;;;;5042618;28;20357;-68
2022/04/28 06:21:59;;;;;;;3.07;0.97;;;;;;;;;;5036957;28;20562;-68
2022/04/28 06:24:27;;;;;;;5.00;1.00;;;;;;;;;;5032668;28;20195;-68
2022/04/28 06:26:55;;;;;;;1.53;0.83;;;;;;;;;;5033633;28;20344;-68
2022/04/28 06:29:22;;;;;;;1.80;0.90;;;;;;;;;;5033555;28;20527;-68
2022/04/28 06:31:50;;;;;;;1.90;0.73;;;;;;;;;;5046941;28;20217;-68
2022/04/28 06:34:41;;;;;;;2.97;1.07;;;;;;;;;;5021872;28;20292;-68
2022/04/28 06:37:08;;;;;;;4.07;1.13;;;;;;;;;;5023277;28;20248;-68
2022/04/28 06:39:36;;;;;;;4.43;0.90;;;;;;;;;;5051928;28;20215;-68
2022/04/28 06:42:03;;;;;;;4.73;0.93;;;;;;;;;;5051667;28;20715;-68
2022/04/28 06:45:04;;;;;;;2.83;0.97;;;;;;;;;;5050440;28;20201;-68
2022/04/28 06:47:51;;;;;;;2.20;0.80;;;;;;;;;;5029583;28;20245;-68
2022/04/28 06:50:36;;;;;;;3.53;0.70;;;;;;;;;;5050608;28;20202;-68
2022/04/28 06:53:22;;;;;;;1.97;1.00;;;;;;;;;;5047012;28;20824;-67
2022/04/28 06:55:56;;;;;;;0.97;0.70;;;;;;;;;;5034063;28;20202;-66
2022/04/28 06:58:25;;;;;;;1.20;0.80;;;;;;;;;;5033366;28;20210;-67
2022/04/28 07:00:53;;;;;;;2.57;0.90;;;;;;;;;;5032559;28;20183;-67
2022/04/28 07:03:21;;;;;;;3.60;0.90;;;;;;;;;;5032521;28;20234;-67
2022/04/28 07:05:53;;;;;;;1.83;0.63;;;;;;;;;;5030205;28;20263;-67
2022/04/28 07:08:21;;;;;;;2.13;1.00;;;;;;;;;;5028708;28;20700;-67
2022/04/28 07:10:48;;;;;;;1.30;0.80;;;;;;;;;;5017285;28;20210;-67
2022/04/28 07:13:16;;;;;;;2.60;0.80;;;;;;;;;;5029737;28;20223;-67
2022/04/28 07:16:01;;;;;;;2.67;0.73;;;;;;;;;;5046937;28;20676;-66
2022/04/28 07:18:47;;;;;;;3.13;0.90;;;;;;;;;;5049037;28;20236;-66
2022/04/28 07:21:15;;;;;;;3.20;0.80;;;;;;;;;;5027199;28;20289;-67
2022/04/28 07:23:43;;;;;;;1.70;0.73;;;;;;;;;;5033811;28;20596;-67
2022/04/28 07:26:10;;;;;;;1.73;0.70;;;;;;;;;;5032534;28;20214;-68
2022/04/28 07:28:37;;;;;;;2.30;0.70;;;;;;;;;;5032450;28;20194;-68
2022/04/28 07:31:21;;;;;;;2.80;1.00;;;;;;;;;;5050716;28;20624;-68
2022/04/28 07:34:08;;;;;;;2.20;0.80;;;;;;;;;;5050752;28;20553;-68
2022/04/28 07:36:53;;;;;;;2.17;0.80;;;;;;;;;;5041750;28;20282;-68
2022/04/28 07:39:52;;;;;;;2.73;0.70;;;;;;;;;;5013211;28;20285;-67
2022/04/28 07:42:28;;;;;;;2.03;0.90;;;;;;;;;;5033750;28;20198;-67
2022/04/28 07:44:56;;;;;;;2.93;0.60;;;;;;;;;;5025843;28;20536;-66
2022/04/28 07:47:23;;;;;;;2.20;0.70;;;;;;;;;;5017086;28;20199;-67
2022/04/28 07:49:58;;;;;;;1.37;0.60;;;;;;;;;;5037767;28;20222;-66
2022/04/28 07:52:25;;;;;;;1.70;0.70;;;;;;;;;;5031807;28;20241;-67
2022/04/28 07:54:53;;;;;;;1.43;0.80;;;;;;;;;;5041315;28;20657;-67
2022/04/28 07:57:23;;;;;;;1.97;0.73;;;;;;;;;;5028915;28;20203;-67
2022/04/28 07:59:50;;;;;;;2.43;0.90;;;;;;;;;;5032208;28;20214;-67
2022/04/28 08:02:19;;;;;;;1.43;0.70;;;;;;;;;;5028315;28;20283;-67
2022/04/28 08:04:50;;;;;;;2.67;0.80;;;;;;;;;;5030117;28;20279;-67
2022/04/28 08:07:17;;;;;;;1.17;0.60;;;;;;;;;;5046567;28;20629;-67
2022/04/28 08:09:48;;;;;;;3.23;0.90;;;;;;;;;;5032983;28;20202;-67
2022/04/28 08:12:20;;;;;;;0.93;0.60;;;;;;;;;;5014829;28;20252;-67
2022/04/28 08:15:27;;;;;;;9.73;1.17;;;;;;;;;;5029932;28;20287;-67
2022/04/28 08:17:54;;;;;;;3.20;0.87;;;;;;;;;;5032200;28;20321;-67
2022/04/28 08:20:22;;;;;;;2.10;0.90;;;;;;;;;;5013197;28;20329;-67
2022/04/28 08:22:49;;;;;;;2.13;0.80;;;;;;;;;;5023392;28;20219;-67
2022/04/28 08:25:16;;;;;;;2.27;0.90;;;;;;;;;;5005878;28;20242;-67
2022/04/28 08:27:43;;;;;;;1.83;0.67;;;;;;;;;;5031536;28;20203;-68
2022/04/28 08:30:11;;;;;;;6.13;0.97;;;;;;;;;;5032587;28;20195;-67
2022/04/28 08:32:38;;;;;;;1.97;0.80;;;;;;;;;;5032785;28;20195;-67
2022/04/28 08:35:05;;;;;;;1.00;0.70;;;;;;;;;;5047857;28;20186;-67
2022/04/28 08:37:32;;;;;;;1.20;0.70;;;;;;;;;;5032643;28;20689;-67
2022/04/28 08:39:58;;;;;;;1.20;0.60;;;;;;;;;;5050190;28;20235;-67
2022/04/28 08:42:26;;;;;;;1.53;0.70;;;;;;;;;;5051891;28;20198;-67
2022/04/28 08:44:59;;;;;;;1.97;1.07;;;;;;;;;;5035014;28;20199;-66
2022/04/28 08:47:49;;;;;;;3.03;0.90;;;;;;;;;;5008599;28;20240;-68
2022/04/28 08:50:36;;;;;;;4.37;1.30;;;;;;;;;;4997724;28;20218;-66
2022/04/28 08:53:09;;;;;;;2.47;0.80;;;;;;;;;;5030001;28;20194;-67
2022/04/28 08:55:40;;;;;;;2.53;0.90;;;;;;;;;;5018914;28;20218;-67
2022/04/28 08:58:08;;;;;;;6.00;0.80;;;;;;;;;;5045139;28;20198;-67
2022/04/28 09:00:41;;;;;;;3.50;1.20;;;;;;;;;;5035316;28;20709;-67
2022/04/28 09:03:23;;;;;;;2.40;0.80;;;;;;;;;;5038148;28;20254;-67
2022/04/28 09:06:18;;;;;;;3.17;1.10;;;;;;;;;;5052805;28;20562;-67
2022/04/28 09:09:05;;;;;;;2.90;1.10;;;;;;;;;;5053339;28;20197;-67
2022/04/28 09:12:02;;;;;;;1.77;0.80;;;;;;;;;;5029975;28;20209;-67
2022/04/28 09:14:47;;;;;;;4.53;1.10;;;;;;;;;;5027824;28;20731;-67
2022/04/28 09:17:19;;;;;;;1.40;0.70;;;;;;;;;;5042286;28;20221;-67
2022/04/28 09:19:47;;;;;;;3.13;1.13;;;;;;;;;;5027000;28;20223;-67
2022/04/28 09:22:23;;;;;;;4.03;0.97;;;;;;;;;;5039747;28;20197;-67
2022/04/28 09:24:55;;;;;;;3.30;0.87;;;;;;;;;;5035596;28;20191;-67
2022/04/28 09:27:23;;;;;;;2.67;0.90;;;;;;;;;;5052251;28;20199;-67
2022/04/28 09:29:52;;;;;;;2.20;0.80;;;;;;;;;;5017955;28;20241;-67
2022/04/28 09:32:21;;;;;;;1.67;0.70;;;;;;;;;;5035151;28;20194;-67
2022/04/28 09:35:30;;;;;;;1.57;0.77;;;;;;;;;;5052175;28;20277;-67
2022/04/28 09:38:23;;;;;;;3.73;1.10;;;;;;;;;;5051786;28;20666;-67
2022/04/28 09:43:58;;;;;;;2.73;0.90;;;;;;;;;;5034048;28;20585;-67
2022/04/28 09:46:32;;;;;;;1.43;0.63;;;;;;;;;;5024218;28;20582;-67
2022/04/28 09:49:00;;;;;;;1.70;0.70;;;;;;;;;;5029033;28;20278;-67
2022/04/28 09:51:37;;;;;;;2.60;1.20;;;;;;;;;;5047512;28;20675;-67
2022/04/28 09:54:22;;;;;;;1.53;0.70;;;;;;;;;;5034888;28;20315;-67
2022/04/28 09:56:59;;;;;;;2.80;1.13;;;;;;;;;;5034726;28;20198;-66
2022/04/28 09:59:27;;;;;;;3.40;0.70;;;;;;;;;;5038316;28;20242;-66
2022/04/28 10:01:55;;;;;;;4.33;1.00;;;;;;;;;;5032945;28;20208;-67
2022/04/28 10:04:23;;;;;;;0.90;0.63;;;;;;;;;;5049837;28;20223;-67
2022/04/28 10:07:14;;;;;;;2.10;0.87;;;;;;;;;;5034351;28;20292;-67
2022/04/28 10:09:41;;;;;;;2.10;0.80;;;;;;;;;;5034583;28;20285;-67
2022/04/28 10:12:14;;;;;;;1.60;0.77;;;;;;;;;;5052306;28;20257;-67
2022/04/28 10:15:01;;;;;;;2.37;0.80;;;;;;;;;;5034541;28;20245;-67
2022/04/28 10:17:29;;;;;;;3.30;0.70;;;;;;;;;;5051002;28;20195;-67
2022/04/28 10:19:57;;;;;;;2.73;1.03;;;;;;;;;;5050008;28;20214;-67
2022/04/28 10:22:42;;;;;;;3.53;0.70;;;;;;;;;;5034252;28;20277;-67
2022/04/28 10:34:23;;;;;;;2.60;0.77;;;;;;;;;;5037253;28;20191;-67
2022/04/28 10:36:51;;;;;;;2.07;0.80;;;;;;;;;;5039443;28;20242;-67
2022/04/28 10:39:30;;;;;;;2.10;0.73;;;;;;;;;;5047420;28;20287;-67
2022/04/28 10:41:57;;;;;;;1.97;0.77;;;;;;;;;;5035168;28;20211;-67
2022/04/28 10:44:32;;;;;;;4.23;0.80;;;;;;;;;;5051770;28;20316;-67
2022/04/28 10:47:02;;;;;;;2.27;0.80;;;;;;;;;;5051515;28;20546;-67
2022/04/28 10:49:35;;;;;;;6.13;1.43;;;;;;;;;;5048879;28;20262;-67
2022/04/28 10:52:04;;;;;;;3.03;0.83;;;;;;;;;;5038767;28;20614;-67
2022/04/28 10:54:41;;;;;;;3.13;0.77;;;;;;;;;;5038571;28;20655;-67
2022/04/28 10:57:09;;;;;;;3.87;0.63;;;;;;;;;;5048781;28;20293;-67
2022/04/28 10:59:37;;;;;;;3.30;0.83;;;;;;;;;;5032767;28;20203;-67
2022/04/28 11:02:10;;;;;;;1.63;0.60;;;;;;;;;;5029245;28;20654;-67
2022/04/28 11:04:37;;;;;;;3.60;0.90;;;;;;;;;;5046510;28;20232;-67
2022/04/28 11:07:05;;;;;;;1.80;0.67;;;;;;;;;;5050013;28;20202;-67
2022/04/28 11:09:43;;;;;;;4.10;0.80;;;;;;;;;;5048040;28;20736;-67
2022/04/28 11:12:11;;;;;;;1.67;0.70;;;;;;;;;;5048841;28;20195;-67
2022/04/28 11:14:44;;;;;;;3.67;1.03;;;;;;;;;;5050095;28;20198;-67
2022/04/28 11:17:11;;;;;;;5.17;1.10;;;;;;;;;;5049120;28;20190;-67
2022/04/28 11:19:38;;;;;;;3.97;0.90;;;;;;;;;;5029108;28;20282;-67
2022/04/28 11:22:22;;;;;;;1.60;0.70;;;;;;;;;;5037870;28;20626;-67
2022/04/28 11:25:13;;;;;;;5.13;0.80;;;;;;;;;;5050255;28;20602;-67
2022/04/28 11:27:43;;;;;;;1.83;0.70;;;;;;;;;;5031697;28;20194;-67
2022/04/28 11:30:14;;;;;;;1.13;0.70;;;;;;;;;;5031754;28;20198;-67
2022/04/28 11:32:45;;;;;;;6.33;1.10;;;;;;;;;;5050502;28;20589;-67
2022/04/28 11:35:11;;;;;;;3.20;0.90;;;;;;;;;;5051285;28;20195;-67
2022/04/28 11:37:38;;;;;;;2.20;0.70;;;;;;;;;;5031616;28;20199;-67
2022/04/28 11:40:06;;;;;;;4.93;0.90;;;;;;;;;;5049229;28;20211;-67
2022/04/28 11:42:56;;;;;;;1.67;0.90;;;;;;;;;;5043104;28;20963;-67
2022/04/28 11:45:23;;;;;;;1.70;0.73;;;;;;;;;;5051238;28;20248;-67
2022/04/28 11:47:53;;;;;;;2.07;0.83;;;;;;;;;;5044688;28;20213;-67
2022/04/28 11:50:21;;;;;;;3.07;0.90;;;;;;;;;;5032742;28;20197;-67
2022/04/28 11:52:58;;;;;;;2.43;0.83;;;;;;;;;;5049406;28;20281;-67
2022/04/28 11:55:25;;;;;;;2.37;1.10;;;;;;;;;;5049173;28;20866;-66
2022/04/28 11:57:54;;;;;;;2.83;1.00;;;;;;;;;;5041779;28;20191;-67
2022/04/28 12:00:24;;;;;;;5.40;1.00;;;;;;;;;;5051038;28;20203;-67
2022/04/28 12:02:52;;;;;;;2.00;0.90;;;;;;;;;;5048463;28;20194;-66
2022/04/28 12:05:22;;;;;;;4.20;0.93;;;;;;;;;;5048626;28;20706;-67
2022/04/28 12:07:52;;;;;;;2.43;0.80;;;;;;;;;;5047006;28;20248;-67
2022/04/28 12:15:54;;;;;;;3.27;1.00;;;;;;;;;;5039052;28;20214;-67
2022/04/28 12:21:14;;;;;;;3.17;1.07;;;;;;;;;;5053715;28;20697;-66
2022/04/28 12:23:42;;;;;;;2.87;0.90;;;;;;;;;;5052908;28;20195;-67
2022/04/28 12:26:09;;;;;;;11.17;2.00;;;;;;;;;;5054341;28;20214;-66
2022/04/28 12:28:39;;;;;;;2.07;1.00;;;;;;;;;;5051637;28;20194;-67
2022/04/28 12:31:10;;;;;;;2.77;0.90;;;;;;;;;;5049724;28;20207;-67
2022/04/28 12:33:59;;;;;;;7.17;1.37;;;;;;;;;;5054175;28;20178;-67
2022/04/28 12:36:26;;;;;;;18.03;2.10;;;;;;;;;;5034844;28;20233;-66
2022/04/28 12:38:53;;;;;;;2.50;0.80;;;;;;;;;;5034908;28;20187;-67
2022/04/28 12:41:23;;;;;;;1.70;0.80;;;;;;;;;;5052896;28;20245;-67
2022/04/28 12:44:00;;;;;;;2.13;0.80;;;;;;;;;;5053973;28;20199;-67
2022/04/28 12:46:32;;;;;;;3.17;1.00;;;;;;;;;;5043900;28;20565;-66
2022/04/28 12:49:03;;;;;;;3.90;0.93;;;;;;;;;;5045495;28;20308;-67
2022/04/28 12:51:31;;;;;;;3.53;1.00;;;;;;;;;;5053790;28;20194;-67
2022/04/28 12:54:07;;;;;;;3.10;1.17;;;;;;;;;;5050037;28;20597;-66
2022/04/28 12:56:34;;;;;;;2.13;0.90;;;;;;;;;;5051425;28;20199;-65
2022/04/28 12:59:03;;;;;;;2.53;1.10;;;;;;;;;;5052378;28;20191;-66
2022/04/28 13:01:30;;;;;;;1.50;0.80;;;;;;;;;;5053528;28;20223;-65
2022/04/28 13:04:02;;;;;;;3.77;1.10;;;;;;;;;;5052520;28;20226;-65
2022/04/28 13:06:31;;;;;;;3.87;1.10;;;;;;;;;;5052671;28;20194;-64
2022/04/28 13:08:58;;;;;;;2.37;0.90;;;;;;;;;;5047413;28;20201;-67
2022/04/28 13:11:25;;;;;;;3.57;1.07;;;;;;;;;;5052468;28;20572;-67
2022/04/28 13:13:54;;;;;;;2.83;1.27;;;;;;;;;;5052153;28;20262;-74
2022/04/28 13:16:21;;;;;;;1.33;0.80;;;;;;;;;;5031146;28;20677;-75
2022/04/28 13:18:49;;;;;;;1.90;0.80;;;;;;;;;;5044304;28;20215;-73
2022/04/28 13:21:17;;;;;;;2.00;0.60;;;;;;;;;;5053974;28;20685;-72
2022/04/28 13:23:44;;;;;;;2.50;0.90;;;;;;;;;;5022020;28;20231;-65
2022/04/28 13:26:11;;;;;;;2.83;1.10;;;;;;;;;;5020979;28;20183;-74
2022/04/28 13:28:38;;;;;;;1.63;1.00;;;;;;;;;;5051043;28;20273;-72
2022/04/28 13:31:06;;;;;;;2.70;0.90;;;;;;;;;;5048392;28;20716;-78
2022/04/28 13:33:33;;;;;;;4.53;1.00;;;;;;;;;;5039557;28;20194;-76
2022/04/28 13:36:05;;;;;;;2.00;0.93;;;;;;;;;;5058724;28;20193;-73
2022/04/28 13:38:33;;;;;;;3.50;0.80;;;;;;;;;;5052330;28;20187;-75
2022/04/28 13:41:00;;;;;;;2.97;0.60;;;;;;;;;;5051439;28;20729;-75
2022/04/28 13:43:27;;;;;;;1.30;0.90;;;;;;;;;;5027520;28;20210;-79
2022/04/28 13:45:54;;;;;;;2.33;0.90;;;;;;;;;;5052390;28;20199;-78
2022/04/28 13:48:20;;;;;;;2.33;0.80;;;;;;;;;;5053796;28;20210;-73
2022/04/28 13:50:48;;;;;;;1.43;0.70;;;;;;;;;;5053278;28;20546;-75
2022/04/28 13:53:16;;;;;;;1.97;0.80;;;;;;;;;;5036484;28;20195;-76
2022/04/28 13:55:42;;;;;;;1.67;0.70;;;;;;;;;;5047862;28;20194;-76
2022/04/28 13:58:10;;;;;;;3.53;0.80;;;;;;;;;;5043151;28;20222;-74
2022/04/28 14:00:38;;;;;;;2.43;0.80;;;;;;;;;;5046775;28;20211;-74
2022/04/28 14:03:07;;;;;;;1.43;0.60;;;;;;;;;;5053092;28;20210;-72
2022/04/28 14:05:34;;;;;;;2.13;0.90;;;;;;;;;;5052541;28;20661;-71
2022/04/28 14:08:02;;;;;;;2.93;0.90;;;;;;;;;;5052769;28;20199;-71
2022/04/28 14:10:29;;;;;;;3.27;1.00;;;;;;;;;;5033656;28;20206;-69
2022/04/28 14:12:55;;;;;;;2.63;0.83;;;;;;;;;;5047564;28;20302;-70
2022/04/28 14:15:24;;;;;;;2.67;0.80;;;;;;;;;;5035802;28;20194;-71
2022/04/28 14:17:51;;;;;;;3.70;0.90;;;;;;;;;;5034929;28;20210;-67
2022/04/28 14:20:18;;;;;;;3.57;1.00;;;;;;;;;;5036443;28;20226;-69
2022/04/28 14:22:47;;;;;;;2.17;0.80;;;;;;;;;;5044378;28;20183;-68
2022/04/28 14:25:14;;;;;;;1.80;0.70;;;;;;;;;;5045171;28;20201;-68
2022/04/28 14:27:41;;;;;;;2.00;0.70;;;;;;;;;;5050211;28;20199;-68
2022/04/28 14:30:25;;;;;;;1.77;0.60;;;;;;;;;;5043745;28;20306;-67
2022/04/28 14:32:52;;;;;;;3.37;0.70;;;;;;;;;;5046052;28;20186;-67
2022/04/28 14:35:24;;;;;;;2.83;0.60;;;;;;;;;;5040562;28;20213;-68
2022/04/28 14:37:51;;;;;;;3.93;0.90;;;;;;;;;;5044869;28;20222;-66
2022/04/28 14:40:18;;;;;;;1.20;0.60;;;;;;;;;;5045896;28;20662;-66
2022/04/28 14:42:46;;;;;;;1.23;0.60;;;;;;;;;;5048812;28;20279;-67
2022/04/28 14:45:12;;;;;;;3.80;0.90;;;;;;;;;;5048616;28;20278;-67
2022/04/28 14:47:41;;;;;;;4.00;0.70;;;;;;;;;;5046736;28;20202;-68
2022/04/28 14:52:54;;;;;;;2.73;0.70;;;;;;;;;;5049014;28;20186;-68
2022/04/28 14:55:21;;;;;;;2.80;0.87;;;;;;;;;;5049129;28;20195;-68
2022/04/28 14:57:48;;;;;;;3.30;0.83;;;;;;;;;;5048670;28;20642;-67
2022/04/28 15:00:18;;;;;;;2.17;1.00;;;;;;;;;;5048695;28;20191;-67
2022/04/28 15:02:49;;;;;;;1.20;0.60;;;;;;;;;;5047307;28;20209;-60
2022/04/28 15:05:18;;;;;;;0.97;0.57;;;;;;;;;;5035926;28;20231;-60
2022/04/28 15:07:45;;;;;;;1.80;0.80;;;;;;;;;;5039347;28;20218;-61
2022/04/28 15:10:12;;;;;;;4.60;1.07;;;;;;;;;;5028922;28;20202;-61
2022/04/28 15:12:39;;;;;;;3.50;1.10;;;;;;;;;;5046377;28;20186;-68
2022/04/28 15:15:12;;;;;;;3.33;0.87;;;;;;;;;;5048349;28;20194;-68
2022/04/28 15:17:39;;;;;;;2.90;0.70;;;;;;;;;;5045002;28;20201;-68
2022/04/28 15:20:07;;;;;;;4.10;0.97;;;;;;;;;;5045280;28;20611;-68
2022/04/28 15:22:34;;;;;;;2.43;0.70;;;;;;;;;;5048305;28;20187;-68
2022/04/28 15:25:02;;;;;;;1.67;0.70;;;;;;;;;;5044925;28;20222;-68
2022/04/28 15:27:30;;;;;;;3.67;1.20;;;;;;;;;;5046980;28;20190;-66
2022/04/28 15:29:56;;;;;;;3.33;1.10;;;;;;;;;;5046288;28;20187;-66
2022/04/28 15:32:43;;;;;;;2.43;0.70;;;;;;;;;;5016835;28;20253;-65
2022/04/28 15:35:10;;;;;;;1.50;0.70;;;;;;;;;;5045541;28;20249;-66
2022/04/28 15:37:38;;;;;;;2.50;0.70;;;;;;;;;;5045180;28;20200;-66
2022/04/28 15:40:08;;;;;;;2.67;0.60;;;;;;;;;;5045856;28;20516;-65
2022/04/28 15:42:35;;;;;;;2.83;0.80;;;;;;;;;;5047723;28;20214;-66
2022/04/28 15:45:02;;;;;;;2.23;0.60;;;;;;;;;;5045047;28;20194;-65
2022/04/28 15:47:29;;;;;;;2.07;0.60;;;;;;;;;;5038365;28;20747;-65
2022/04/28 15:49:56;;;;;;;0.97;0.50;;;;;;;;;;5045647;28;20208;-66